sensor_id;sensor_type;location;lat;lon;timestamp;P1;durP1;ratioP1;P2;durP2;ratioP2
72603;SDS011;60645;56.968;24.196;2024-03-02T00:00:20;3.38;;;1.75;;
72603;SDS011;60645;56.968;24.196;2024-03-02T00:02:48;2.88;;;1.77;;
72603;SDS011;60645;56.968;24.196;2024-03-02T00:05:17;3.03;;;1.70;;
72603;SDS011;60645;56.968;24.196;2024-03-02T00:07:45;2.57;;;1.57;;
72603;SDS011;60645;56.968;24.196;2024-03-02T00:10:16;3.05;;;1.35;;
72603;SDS011;60645;56.968;24.196;2024-03-02T00:12:46;3.63;;;2.13;;
72603;SDS011;60645;56.968;24.196;2024-03-02T00:17:56;2.50;;;1.33;;
72603;SDS011;60645;56.968;24.196;2024-03-02T00:20:25;2.58;;;1.73;;
72603;SDS011;60645;56.968;24.196;2024-03-02T00:22:55;3.67;;;1.73;;
72603;SDS011;60645;56.968;24.196;2024-03-02T00:33:19;2.42;;;1.55;;
72603;SDS011;60645;56.968;24.196;2024-03-02T00:35:47;3.28;;;2.10;;
72603;SDS011;60645;56.968;24.196;2024-03-02T00:38:15;2.90;;;1.50;;
72603;SDS011;60645;56.968;24.196;2024-03-02T00:40:43;2.78;;;1.55;;
72603;SDS011;60645;56.968;24.196;2024-03-02T00:46:18;2.87;;;1.70;;
72603;SDS011;60645;56.968;24.196;2024-03-02T00:48:56;2.67;;;1.87;;
72603;SDS011;60645;56.968;24.196;2024-03-02T00:51:25;3.20;;;1.60;;
72603;SDS011;60645;56.968;24.196;2024-03-02T00:53:53;2.63;;;1.83;;
72603;SDS011;60645;56.968;24.196;2024-03-02T00:56:23;2.78;;;2.00;;
72603;SDS011;60645;56.968;24.196;2024-03-02T00:58:51;2.70;;;1.75;;
72603;SDS011;60645;56.968;24.196;2024-03-02T01:01:19;3.20;;;1.80;;
72603;SDS011;60645;56.968;24.196;2024-03-02T01:03:49;3.25;;;1.77;;
72603;SDS011;60645;56.968;24.196;2024-03-02T01:06:17;3.53;;;2.35;;
72603;SDS011;60645;56.968;24.196;2024-03-02T01:08:44;2.20;;;1.70;;
72603;SDS011;60645;56.968;24.196;2024-03-02T01:11:13;3.63;;;2.20;;
72603;SDS011;60645;56.968;24.196;2024-03-02T01:13:40;3.40;;;2.25;;
72603;SDS011;60645;56.968;24.196;2024-03-02T01:16:07;3.20;;;1.97;;
72603;SDS011;60645;56.968;24.196;2024-03-02T01:18:34;3.45;;;2.05;;
72603;SDS011;60645;56.968;24.196;2024-03-02T01:21:01;3.10;;;1.63;;
72603;SDS011;60645;56.968;24.196;2024-03-02T01:23:28;4.47;;;2.15;;
72603;SDS011;60645;56.968;24.196;2024-03-02T01:25:55;3.70;;;2.15;;
72603;SDS011;60645;56.968;24.196;2024-03-02T01:28:22;3.60;;;2.13;;
72603;SDS011;60645;56.968;24.196;2024-03-02T01:30:49;3.65;;;2.28;;
72603;SDS011;60645;56.968;24.196;2024-03-02T01:33:17;3.17;;;1.63;;
72603;SDS011;60645;56.968;24.196;2024-03-02T01:35:47;3.28;;;2.08;;
72603;SDS011;60645;56.968;24.196;2024-03-02T01:38:14;3.95;;;2.00;;
72603;SDS011;60645;56.968;24.196;2024-03-02T01:40:41;3.67;;;1.88;;
72603;SDS011;60645;56.968;24.196;2024-03-02T01:43:11;4.25;;;2.30;;
72603;SDS011;60645;56.968;24.196;2024-03-02T01:45:38;3.50;;;2.00;;
72603;SDS011;60645;56.968;24.196;2024-03-02T01:48:05;3.63;;;2.15;;
72603;SDS011;60645;56.968;24.196;2024-03-02T01:50:33;2.22;;;1.90;;
72603;SDS011;60645;56.968;24.196;2024-03-02T01:53:01;3.50;;;2.05;;
72603;SDS011;60645;56.968;24.196;2024-03-02T01:55:31;3.65;;;1.90;;
72603;SDS011;60645;56.968;24.196;2024-03-02T01:57:59;3.53;;;2.20;;
72603;SDS011;60645;56.968;24.196;2024-03-02T02:00:27;3.50;;;1.90;;
72603;SDS011;60645;56.968;24.196;2024-03-02T02:02:54;3.05;;;1.80;;
72603;SDS011;60645;56.968;24.196;2024-03-02T02:05:21;3.17;;;2.10;;
72603;SDS011;60645;56.968;24.196;2024-03-02T02:07:49;4.32;;;2.20;;
72603;SDS011;60645;56.968;24.196;2024-03-02T02:10:16;3.23;;;2.10;;
72603;SDS011;60645;56.968;24.196;2024-03-02T02:12:43;3.58;;;2.20;;
72603;SDS011;60645;56.968;24.196;2024-03-02T02:15:25;3.72;;;2.22;;
72603;SDS011;60645;56.968;24.196;2024-03-02T02:17:54;3.93;;;1.90;;
72603;SDS011;60645;56.968;24.196;2024-03-02T02:20:21;3.65;;;2.22;;
72603;SDS011;60645;56.968;24.196;2024-03-02T02:22:53;3.20;;;1.70;;
72603;SDS011;60645;56.968;24.196;2024-03-02T03:09:52;5.80;;;3.47;;
72603;SDS011;60645;56.968;24.196;2024-03-02T03:12:19;6.68;;;3.10;;
72603;SDS011;60645;56.968;24.196;2024-03-02T03:14:45;6.67;;;3.83;;
72603;SDS011;60645;56.968;24.196;2024-03-02T03:17:12;7.32;;;4.25;;
72603;SDS011;60645;56.968;24.196;2024-03-02T03:19:39;7.18;;;4.05;;
72603;SDS011;60645;56.968;24.196;2024-03-02T03:22:06;6.05;;;3.50;;
72603;SDS011;60645;56.968;24.196;2024-03-02T03:24:33;7.80;;;4.13;;
72603;SDS011;60645;56.968;24.196;2024-03-02T03:27:00;8.60;;;3.72;;
72603;SDS011;60645;56.968;24.196;2024-03-02T03:29:27;7.05;;;4.05;;
72603;SDS011;60645;56.968;24.196;2024-03-02T03:31:54;7.33;;;4.53;;
72603;SDS011;60645;56.968;24.196;2024-03-02T03:34:21;4.85;;;2.92;;
72603;SDS011;60645;56.968;24.196;2024-03-02T03:36:48;7.55;;;4.05;;
72603;SDS011;60645;56.968;24.196;2024-03-02T03:39:15;8.23;;;4.22;;
72603;SDS011;60645;56.968;24.196;2024-03-02T03:41:43;7.53;;;4.73;;
72603;SDS011;60645;56.968;24.196;2024-03-02T03:44:10;8.27;;;4.65;;
72603;SDS011;60645;56.968;24.196;2024-03-02T03:46:37;7.25;;;4.43;;
72603;SDS011;60645;56.968;24.196;2024-03-02T03:49:04;8.00;;;4.50;;
72603;SDS011;60645;56.968;24.196;2024-03-02T03:51:31;8.98;;;4.30;;
72603;SDS011;60645;56.968;24.196;2024-03-02T03:53:58;7.45;;;4.93;;
72603;SDS011;60645;56.968;24.196;2024-03-02T03:56:26;8.85;;;4.90;;
72603;SDS011;60645;56.968;24.196;2024-03-02T03:58:53;8.52;;;4.82;;
72603;SDS011;60645;56.968;24.196;2024-03-02T04:01:19;9.25;;;4.40;;
72603;SDS011;60645;56.968;24.196;2024-03-02T04:03:48;8.80;;;4.55;;
72603;SDS011;60645;56.968;24.196;2024-03-02T04:06:15;8.98;;;5.13;;
72603;SDS011;60645;56.968;24.196;2024-03-02T04:08:43;7.25;;;4.35;;
72603;SDS011;60645;56.968;24.196;2024-03-02T04:11:10;10.82;;;5.72;;
72603;SDS011;60645;56.968;24.196;2024-03-02T04:13:37;7.32;;;4.72;;
72603;SDS011;60645;56.968;24.196;2024-03-02T04:16:04;6.80;;;4.28;;
72603;SDS011;60645;56.968;24.196;2024-03-02T04:18:32;8.93;;;4.85;;
72603;SDS011;60645;56.968;24.196;2024-03-02T04:20:58;8.20;;;4.47;;
72603;SDS011;60645;56.968;24.196;2024-03-02T04:23:26;8.00;;;5.10;;
72603;SDS011;60645;56.968;24.196;2024-03-02T04:25:53;8.90;;;5.07;;
72603;SDS011;60645;56.968;24.196;2024-03-02T04:28:20;8.70;;;5.33;;
72603;SDS011;60645;56.968;24.196;2024-03-02T04:30:48;8.07;;;4.93;;
72603;SDS011;60645;56.968;24.196;2024-03-02T04:33:16;8.00;;;4.55;;
72603;SDS011;60645;56.968;24.196;2024-03-02T04:35:43;7.68;;;5.13;;
72603;SDS011;60645;56.968;24.196;2024-03-02T04:38:10;8.88;;;5.15;;
72603;SDS011;60645;56.968;24.196;2024-03-02T04:40:37;8.00;;;4.05;;
72603;SDS011;60645;56.968;24.196;2024-03-02T04:43:04;8.25;;;5.20;;
72603;SDS011;60645;56.968;24.196;2024-03-02T04:45:31;9.13;;;5.15;;
72603;SDS011;60645;56.968;24.196;2024-03-02T04:47:58;8.27;;;4.82;;
72603;SDS011;60645;56.968;24.196;2024-03-02T04:50:25;10.32;;;5.57;;
72603;SDS011;60645;56.968;24.196;2024-03-02T04:52:52;8.77;;;4.68;;
72603;SDS011;60645;56.968;24.196;2024-03-02T04:55:19;9.40;;;5.68;;
72603;SDS011;60645;56.968;24.196;2024-03-02T04:58:03;9.27;;;5.20;;
72603;SDS011;60645;56.968;24.196;2024-03-02T05:00:30;9.57;;;5.85;;
72603;SDS011;60645;56.968;24.196;2024-03-02T05:02:57;8.85;;;5.57;;
72603;SDS011;60645;56.968;24.196;2024-03-02T05:05:24;8.13;;;5.10;;
72603;SDS011;60645;56.968;24.196;2024-03-02T05:07:51;7.73;;;5.33;;
72603;SDS011;60645;56.968;24.196;2024-03-02T05:10:19;8.65;;;5.07;;
72603;SDS011;60645;56.968;24.196;2024-03-02T05:12:46;8.98;;;5.35;;
72603;SDS011;60645;56.968;24.196;2024-03-02T05:15:23;7.63;;;4.97;;
72603;SDS011;60645;56.968;24.196;2024-03-02T05:17:51;7.22;;;4.50;;
72603;SDS011;60645;56.968;24.196;2024-03-02T05:20:18;7.60;;;5.55;;
72603;SDS011;60645;56.968;24.196;2024-03-02T05:22:45;10.40;;;5.30;;
72603;SDS011;60645;56.968;24.196;2024-03-02T05:25:13;9.70;;;6.10;;
72603;SDS011;60645;56.968;24.196;2024-03-02T05:27:40;9.63;;;5.37;;
72603;SDS011;60645;56.968;24.196;2024-03-02T05:30:07;9.35;;;4.75;;
72603;SDS011;60645;56.968;24.196;2024-03-02T05:32:35;8.93;;;5.43;;
72603;SDS011;60645;56.968;24.196;2024-03-02T05:35:02;7.53;;;5.07;;
72603;SDS011;60645;56.968;24.196;2024-03-02T05:37:29;8.05;;;4.82;;
72603;SDS011;60645;56.968;24.196;2024-03-02T05:39:56;7.93;;;4.45;;
72603;SDS011;60645;56.968;24.196;2024-03-02T05:42:23;6.85;;;4.70;;
72603;SDS011;60645;56.968;24.196;2024-03-02T05:44:53;8.57;;;5.20;;
72603;SDS011;60645;56.968;24.196;2024-03-02T05:47:20;7.57;;;4.70;;
72603;SDS011;60645;56.968;24.196;2024-03-02T05:49:47;7.80;;;5.32;;
72603;SDS011;60645;56.968;24.196;2024-03-02T05:52:14;8.55;;;4.43;;
72603;SDS011;60645;56.968;24.196;2024-03-02T05:54:41;7.63;;;4.97;;
72603;SDS011;60645;56.968;24.196;2024-03-02T05:57:09;7.68;;;4.28;;
72603;SDS011;60645;56.968;24.196;2024-03-02T06:00:14;7.50;;;5.17;;
72603;SDS011;60645;56.968;24.196;2024-03-02T06:02:43;7.65;;;4.38;;
72603;SDS011;60645;56.968;24.196;2024-03-02T06:05:11;6.93;;;4.50;;
72603;SDS011;60645;56.968;24.196;2024-03-02T06:07:38;7.53;;;4.90;;
72603;SDS011;60645;56.968;24.196;2024-03-02T06:10:05;6.60;;;4.07;;
72603;SDS011;60645;56.968;24.196;2024-03-02T06:12:37;6.60;;;4.50;;
72603;SDS011;60645;56.968;24.196;2024-03-02T06:15:04;7.93;;;4.95;;
72603;SDS011;60645;56.968;24.196;2024-03-02T06:17:31;6.35;;;4.20;;
72603;SDS011;60645;56.968;24.196;2024-03-02T06:19:58;5.97;;;3.80;;
72603;SDS011;60645;56.968;24.196;2024-03-02T06:22:25;7.63;;;4.50;;
72603;SDS011;60645;56.968;24.196;2024-03-02T06:24:52;7.50;;;4.47;;
72603;SDS011;60645;56.968;24.196;2024-03-02T06:27:19;6.78;;;4.63;;
72603;SDS011;60645;56.968;24.196;2024-03-02T06:29:47;6.68;;;3.63;;
72603;SDS011;60645;56.968;24.196;2024-03-02T06:32:14;7.50;;;4.28;;
72603;SDS011;60645;56.968;24.196;2024-03-02T06:34:42;5.45;;;3.58;;
72603;SDS011;60645;56.968;24.196;2024-03-02T06:37:09;6.60;;;3.43;;
72603;SDS011;60645;56.968;24.196;2024-03-02T06:39:36;7.03;;;4.75;;
72603;SDS011;60645;56.968;24.196;2024-03-02T06:42:03;5.50;;;3.80;;
72603;SDS011;60645;56.968;24.196;2024-03-02T06:44:30;8.02;;;4.03;;
72603;SDS011;60645;56.968;24.196;2024-03-02T06:46:57;6.28;;;3.53;;
72603;SDS011;60645;56.968;24.196;2024-03-02T06:49:24;5.25;;;3.50;;
72603;SDS011;60645;56.968;24.196;2024-03-02T06:51:51;6.17;;;3.83;;
72603;SDS011;60645;56.968;24.196;2024-03-02T06:54:18;6.45;;;4.03;;
72603;SDS011;60645;56.968;24.196;2024-03-02T06:56:45;5.83;;;3.90;;
72603;SDS011;60645;56.968;24.196;2024-03-02T06:59:13;5.47;;;3.53;;
72603;SDS011;60645;56.968;24.196;2024-03-02T07:01:39;5.70;;;3.83;;
72603;SDS011;60645;56.968;24.196;2024-03-02T07:04:06;6.70;;;4.10;;
72603;SDS011;60645;56.968;24.196;2024-03-02T07:06:33;4.60;;;3.72;;
72603;SDS011;60645;56.968;24.196;2024-03-02T07:11:27;5.15;;;3.78;;
72603;SDS011;60645;56.968;24.196;2024-03-02T07:13:54;7.72;;;3.80;;
72603;SDS011;60645;56.968;24.196;2024-03-02T07:16:21;7.13;;;4.97;;
72603;SDS011;60645;56.968;24.196;2024-03-02T07:19:06;5.55;;;3.95;;
72603;SDS011;60645;56.968;24.196;2024-03-02T07:21:34;6.97;;;4.53;;
72603;SDS011;60645;56.968;24.196;2024-03-02T07:24:01;7.30;;;4.25;;
72603;SDS011;60645;56.968;24.196;2024-03-02T07:26:30;6.47;;;4.03;;
72603;SDS011;60645;56.968;24.196;2024-03-02T07:29:00;5.78;;;4.03;;
72603;SDS011;60645;56.968;24.196;2024-03-02T07:31:27;6.45;;;4.25;;
72603;SDS011;60645;56.968;24.196;2024-03-02T07:33:54;8.70;;;4.37;;
72603;SDS011;60645;56.968;24.196;2024-03-02T07:36:21;7.35;;;3.95;;
72603;SDS011;60645;56.968;24.196;2024-03-02T07:38:48;5.53;;;3.60;;
72603;SDS011;60645;56.968;24.196;2024-03-02T07:41:17;7.63;;;4.20;;
72603;SDS011;60645;56.968;24.196;2024-03-02T07:43:44;6.38;;;4.18;;
72603;SDS011;60645;56.968;24.196;2024-03-02T07:46:11;6.40;;;4.38;;
72603;SDS011;60645;56.968;24.196;2024-03-02T07:48:38;7.03;;;4.35;;
72603;SDS011;60645;56.968;24.196;2024-03-02T07:51:05;8.40;;;4.63;;
72603;SDS011;60645;56.968;24.196;2024-03-02T07:53:32;4.50;;;3.33;;
72603;SDS011;60645;56.968;24.196;2024-03-02T07:55:59;10.23;;;4.95;;
72603;SDS011;60645;56.968;24.196;2024-03-02T07:58:29;7.57;;;4.03;;
72603;SDS011;60645;56.968;24.196;2024-03-02T08:00:57;7.15;;;4.53;;
72603;SDS011;60645;56.968;24.196;2024-03-02T08:03:27;8.43;;;4.67;;
72603;SDS011;60645;56.968;24.196;2024-03-02T08:05:54;6.90;;;3.75;;
72603;SDS011;60645;56.968;24.196;2024-03-02T08:08:21;6.80;;;4.37;;
72603;SDS011;60645;56.968;24.196;2024-03-02T08:10:48;7.75;;;4.68;;
72603;SDS011;60645;56.968;24.196;2024-03-02T08:13:16;7.40;;;4.43;;
72603;SDS011;60645;56.968;24.196;2024-03-02T08:15:43;7.53;;;4.78;;
72603;SDS011;60645;56.968;24.196;2024-03-02T08:18:10;8.48;;;4.55;;
72603;SDS011;60645;56.968;24.196;2024-03-02T08:20:37;6.32;;;3.33;;
72603;SDS011;60645;56.968;24.196;2024-03-02T08:23:05;7.63;;;3.90;;
72603;SDS011;60645;56.968;24.196;2024-03-02T08:25:32;6.27;;;4.33;;
72603;SDS011;60645;56.968;24.196;2024-03-02T08:27:59;7.25;;;4.65;;
72603;SDS011;60645;56.968;24.196;2024-03-02T08:30:26;7.17;;;4.53;;
72603;SDS011;60645;56.968;24.196;2024-03-02T08:32:53;7.05;;;4.60;;
72603;SDS011;60645;56.968;24.196;2024-03-02T08:35:20;6.70;;;3.72;;
72603;SDS011;60645;56.968;24.196;2024-03-02T08:37:48;7.97;;;4.38;;
72603;SDS011;60645;56.968;24.196;2024-03-02T08:40:16;7.17;;;4.40;;
72603;SDS011;60645;56.968;24.196;2024-03-02T08:42:44;7.45;;;4.10;;
72603;SDS011;60645;56.968;24.196;2024-03-02T08:45:12;7.40;;;4.95;;
72603;SDS011;60645;56.968;24.196;2024-03-02T08:47:39;9.15;;;4.72;;
72603;SDS011;60645;56.968;24.196;2024-03-02T08:50:06;8.60;;;4.95;;
72603;SDS011;60645;56.968;24.196;2024-03-02T08:52:34;9.35;;;4.57;;
72603;SDS011;60645;56.968;24.196;2024-03-02T08:55:02;7.38;;;4.82;;
72603;SDS011;60645;56.968;24.196;2024-03-02T08:57:29;6.22;;;4.35;;
72603;SDS011;60645;56.968;24.196;2024-03-02T08:59:56;7.50;;;4.45;;
72603;SDS011;60645;56.968;24.196;2024-03-02T09:02:23;10.43;;;5.53;;
72603;SDS011;60645;56.968;24.196;2024-03-02T09:04:51;8.20;;;4.40;;
72603;SDS011;60645;56.968;24.196;2024-03-02T09:07:18;7.10;;;4.30;;
72603;SDS011;60645;56.968;24.196;2024-03-02T09:09:45;10.13;;;4.65;;
72603;SDS011;60645;56.968;24.196;2024-03-02T09:12:12;6.63;;;3.63;;
72603;SDS011;60645;56.968;24.196;2024-03-02T09:14:40;7.90;;;4.68;;
72603;SDS011;60645;56.968;24.196;2024-03-02T09:17:07;8.23;;;4.18;;
72603;SDS011;60645;56.968;24.196;2024-03-02T09:19:37;7.78;;;4.15;;
72603;SDS011;60645;56.968;24.196;2024-03-02T09:22:04;7.88;;;4.22;;
72603;SDS011;60645;56.968;24.196;2024-03-02T09:24:32;6.80;;;4.45;;
72603;SDS011;60645;56.968;24.196;2024-03-02T09:27:02;9.82;;;5.07;;
72603;SDS011;60645;56.968;24.196;2024-03-02T09:29:29;6.85;;;4.07;;
72603;SDS011;60645;56.968;24.196;2024-03-02T09:31:56;8.60;;;4.20;;
72603;SDS011;60645;56.968;24.196;2024-03-02T09:34:23;8.07;;;4.15;;
72603;SDS011;60645;56.968;24.196;2024-03-02T09:36:50;8.52;;;4.78;;
72603;SDS011;60645;56.968;24.196;2024-03-02T09:39:18;8.95;;;4.60;;
72603;SDS011;60645;56.968;24.196;2024-03-02T09:41:45;8.85;;;4.78;;
72603;SDS011;60645;56.968;24.196;2024-03-02T09:44:14;9.13;;;4.90;;
72603;SDS011;60645;56.968;24.196;2024-03-02T09:46:41;7.57;;;4.25;;
72603;SDS011;60645;56.968;24.196;2024-03-02T09:49:10;9.30;;;4.68;;
72603;SDS011;60645;56.968;24.196;2024-03-02T09:51:37;8.20;;;4.38;;
72603;SDS011;60645;56.968;24.196;2024-03-02T09:54:05;7.75;;;4.43;;
72603;SDS011;60645;56.968;24.196;2024-03-02T09:56:47;9.48;;;5.28;;
72603;SDS011;60645;56.968;24.196;2024-03-02T09:59:13;9.05;;;4.00;;
72603;SDS011;60645;56.968;24.196;2024-03-02T10:02:02;8.60;;;4.90;;
72603;SDS011;60645;56.968;24.196;2024-03-02T10:04:30;7.55;;;4.60;;
72603;SDS011;60645;56.968;24.196;2024-03-02T10:07:12;8.05;;;4.53;;
72603;SDS011;60645;56.968;24.196;2024-03-02T10:09:48;5.65;;;3.13;;
72603;SDS011;60645;56.968;24.196;2024-03-02T10:12:16;8.25;;;4.78;;
72603;SDS011;60645;56.968;24.196;2024-03-02T10:14:43;8.50;;;4.72;;
72603;SDS011;60645;56.968;24.196;2024-03-02T10:17:12;7.88;;;4.40;;
72603;SDS011;60645;56.968;24.196;2024-03-02T10:19:39;9.70;;;4.97;;
72603;SDS011;60645;56.968;24.196;2024-03-02T10:22:07;7.07;;;4.13;;
72603;SDS011;60645;56.968;24.196;2024-03-02T10:24:39;9.98;;;4.22;;
72603;SDS011;60645;56.968;24.196;2024-03-02T10:27:08;10.93;;;5.45;;
72603;SDS011;60645;56.968;24.196;2024-03-02T10:29:39;7.67;;;4.23;;
72603;SDS011;60645;56.968;24.196;2024-03-02T10:32:10;8.37;;;4.67;;
72603;SDS011;60645;56.968;24.196;2024-03-02T10:34:41;9.18;;;4.15;;
72603;SDS011;60645;56.968;24.196;2024-03-02T10:37:10;6.38;;;3.85;;
72603;SDS011;60645;56.968;24.196;2024-03-02T10:39:39;9.13;;;4.80;;
72603;SDS011;60645;56.968;24.196;2024-03-02T10:42:07;7.75;;;4.55;;
72603;SDS011;60645;56.968;24.196;2024-03-02T10:44:35;7.53;;;4.95;;
72603;SDS011;60645;56.968;24.196;2024-03-02T10:47:03;7.93;;;4.20;;
72603;SDS011;60645;56.968;24.196;2024-03-02T10:49:32;9.15;;;4.53;;
72603;SDS011;60645;56.968;24.196;2024-03-02T10:52:00;8.20;;;4.68;;
72603;SDS011;60645;56.968;24.196;2024-03-02T10:54:27;9.40;;;4.65;;
72603;SDS011;60645;56.968;24.196;2024-03-02T10:57:04;6.97;;;4.20;;
72603;SDS011;60645;56.968;24.196;2024-03-02T10:59:34;6.45;;;3.55;;
72603;SDS011;60645;56.968;24.196;2024-03-02T11:02:09;7.68;;;4.05;;
72603;SDS011;60645;56.968;24.196;2024-03-02T11:04:40;9.35;;;4.82;;
72603;SDS011;60645;56.968;24.196;2024-03-02T11:07:09;6.80;;;4.22;;
72603;SDS011;60645;56.968;24.196;2024-03-02T11:09:40;8.68;;;4.93;;
72603;SDS011;60645;56.968;24.196;2024-03-02T11:12:12;7.65;;;4.63;;
72603;SDS011;60645;56.968;24.196;2024-03-02T11:14:45;7.55;;;4.30;;
72603;SDS011;60645;56.968;24.196;2024-03-02T11:17:13;7.57;;;4.23;;
72603;SDS011;60645;56.968;24.196;2024-03-02T11:19:44;6.83;;;4.13;;
72603;SDS011;60645;56.968;24.196;2024-03-02T11:22:12;6.47;;;3.67;;
72603;SDS011;60645;56.968;24.196;2024-03-02T11:24:50;8.30;;;3.67;;
72603;SDS011;60645;56.968;24.196;2024-03-02T11:33:02;7.40;;;4.07;;
72603;SDS011;60645;56.968;24.196;2024-03-02T11:35:41;8.32;;;4.15;;
72603;SDS011;60645;56.968;24.196;2024-03-02T11:38:14;7.03;;;4.38;;
72603;SDS011;60645;56.968;24.196;2024-03-02T11:40:41;8.27;;;4.60;;
72603;SDS011;60645;56.968;24.196;2024-03-02T11:43:08;7.10;;;3.97;;
72603;SDS011;60645;56.968;24.196;2024-03-02T11:45:36;7.13;;;3.83;;
72603;SDS011;60645;56.968;24.196;2024-03-02T11:48:08;7.63;;;3.60;;
72603;SDS011;60645;56.968;24.196;2024-03-02T11:50:41;7.75;;;3.90;;
72603;SDS011;60645;56.968;24.196;2024-03-02T11:53:08;6.78;;;3.58;;
72603;SDS011;60645;56.968;24.196;2024-03-02T11:55:40;6.93;;;4.07;;
72603;SDS011;60645;56.968;24.196;2024-03-02T11:58:07;7.13;;;4.68;;
72603;SDS011;60645;56.968;24.196;2024-03-02T12:00:35;6.37;;;3.10;;
72603;SDS011;60645;56.968;24.196;2024-03-02T12:05:36;7.70;;;4.20;;
72603;SDS011;60645;56.968;24.196;2024-03-02T12:08:03;6.85;;;4.43;;
72603;SDS011;60645;56.968;24.196;2024-03-02T12:10:33;6.80;;;4.35;;
72603;SDS011;60645;56.968;24.196;2024-03-02T12:13:05;7.80;;;3.78;;
72603;SDS011;60645;56.968;24.196;2024-03-02T12:15:35;7.20;;;4.40;;
72603;SDS011;60645;56.968;24.196;2024-03-02T12:18:03;7.35;;;4.22;;
72603;SDS011;60645;56.968;24.196;2024-03-02T12:20:32;7.13;;;4.20;;
72603;SDS011;60645;56.968;24.196;2024-03-02T12:23:00;7.80;;;4.35;;
72603;SDS011;60645;56.968;24.196;2024-03-02T12:25:28;6.03;;;3.25;;
72603;SDS011;60645;56.968;24.196;2024-03-02T12:27:58;7.13;;;3.65;;
72603;SDS011;60645;56.968;24.196;2024-03-02T12:30:29;8.10;;;4.03;;
72603;SDS011;60645;56.968;24.196;2024-03-02T12:32:56;6.35;;;4.10;;
72603;SDS011;60645;56.968;24.196;2024-03-02T12:35:24;8.32;;;4.20;;
72603;SDS011;60645;56.968;24.196;2024-03-02T12:37:52;8.88;;;4.13;;
72603;SDS011;60645;56.968;24.196;2024-03-02T12:40:20;7.03;;;4.25;;
72603;SDS011;60645;56.968;24.196;2024-03-02T12:42:50;6.20;;;3.55;;
72603;SDS011;60645;56.968;24.196;2024-03-02T12:45:41;6.50;;;3.33;;
72603;SDS011;60645;56.968;24.196;2024-03-02T12:48:08;6.22;;;3.50;;
72603;SDS011;60645;56.968;24.196;2024-03-02T12:50:35;6.68;;;3.53;;
72603;SDS011;60645;56.968;24.196;2024-03-02T12:53:02;8.02;;;4.82;;
72603;SDS011;60645;56.968;24.196;2024-03-02T12:55:29;7.90;;;4.40;;
72603;SDS011;60645;56.968;24.196;2024-03-02T12:57:56;8.55;;;4.72;;
72603;SDS011;60645;56.968;24.196;2024-03-02T13:00:25;8.35;;;3.95;;
72603;SDS011;60645;56.968;24.196;2024-03-02T13:02:52;7.15;;;4.05;;
72603;SDS011;60645;56.968;24.196;2024-03-02T13:05:19;7.68;;;4.10;;
72603;SDS011;60645;56.968;24.196;2024-03-02T13:07:48;9.10;;;4.05;;
72603;SDS011;60645;56.968;24.196;2024-03-02T13:10:15;9.90;;;5.40;;
72603;SDS011;60645;56.968;24.196;2024-03-02T13:12:44;6.45;;;4.10;;
72603;SDS011;60645;56.968;24.196;2024-03-02T13:15:11;9.77;;;5.40;;
72603;SDS011;60645;56.968;24.196;2024-03-02T13:17:44;8.15;;;4.57;;
72603;SDS011;60645;56.968;24.196;2024-03-02T13:20:12;12.60;;;6.20;;
72603;SDS011;60645;56.968;24.196;2024-03-02T13:22:41;8.40;;;4.33;;
72603;SDS011;60645;56.968;24.196;2024-03-02T13:25:08;7.43;;;4.83;;
72603;SDS011;60645;56.968;24.196;2024-03-02T13:27:38;9.05;;;5.45;;
72603;SDS011;60645;56.968;24.196;2024-03-02T13:30:05;7.67;;;4.07;;
72603;SDS011;60645;56.968;24.196;2024-03-02T13:32:34;6.90;;;4.18;;
72603;SDS011;60645;56.968;24.196;2024-03-02T13:35:01;9.18;;;4.75;;
72603;SDS011;60645;56.968;24.196;2024-03-02T13:37:31;8.37;;;4.73;;
72603;SDS011;60645;56.968;24.196;2024-03-02T13:39:58;7.30;;;4.28;;
72603;SDS011;60645;56.968;24.196;2024-03-02T13:42:26;8.52;;;4.13;;
72603;SDS011;60645;56.968;24.196;2024-03-02T13:44:54;7.10;;;3.83;;
72603;SDS011;60645;56.968;24.196;2024-03-02T13:47:21;8.77;;;5.28;;
72603;SDS011;60645;56.968;24.196;2024-03-02T13:49:48;6.78;;;4.32;;
72603;SDS011;60645;56.968;24.196;2024-03-02T13:52:15;8.40;;;4.47;;
72603;SDS011;60645;56.968;24.196;2024-03-02T13:54:45;8.52;;;4.75;;
72603;SDS011;60645;56.968;24.196;2024-03-02T13:57:13;8.67;;;4.20;;
72603;SDS011;60645;56.968;24.196;2024-03-02T13:59:40;8.40;;;4.43;;
72603;SDS011;60645;56.968;24.196;2024-03-02T14:02:09;8.15;;;4.82;;
72603;SDS011;60645;56.968;24.196;2024-03-02T14:04:37;9.30;;;4.90;;
72603;SDS011;60645;56.968;24.196;2024-03-02T14:07:05;7.72;;;5.07;;
72603;SDS011;60645;56.968;24.196;2024-03-02T14:09:35;9.88;;;5.30;;
72603;SDS011;60645;56.968;24.196;2024-03-02T14:12:03;8.68;;;4.93;;
72603;SDS011;60645;56.968;24.196;2024-03-02T14:14:31;8.57;;;5.15;;
72603;SDS011;60645;56.968;24.196;2024-03-02T14:16:59;9.63;;;5.32;;
72603;SDS011;60645;56.968;24.196;2024-03-02T14:19:30;11.10;;;5.22;;
72603;SDS011;60645;56.968;24.196;2024-03-02T14:21:57;9.65;;;5.65;;
72603;SDS011;60645;56.968;24.196;2024-03-02T14:24:25;13.93;;;6.57;;
72603;SDS011;60645;56.968;24.196;2024-03-02T14:26:52;11.40;;;5.50;;
72603;SDS011;60645;56.968;24.196;2024-03-02T14:29:31;10.07;;;5.35;;
72603;SDS011;60645;56.968;24.196;2024-03-02T14:31:59;8.10;;;4.63;;
72603;SDS011;60645;56.968;24.196;2024-03-02T14:34:26;10.68;;;5.90;;
72603;SDS011;60645;56.968;24.196;2024-03-02T14:36:53;12.05;;;6.18;;
72603;SDS011;60645;56.968;24.196;2024-03-02T14:39:20;11.70;;;5.40;;
72603;SDS011;60645;56.968;24.196;2024-03-02T14:41:47;11.55;;;6.07;;
72603;SDS011;60645;56.968;24.196;2024-03-02T14:44:15;11.32;;;5.70;;
72603;SDS011;60645;56.968;24.196;2024-03-02T14:46:43;9.85;;;4.65;;
72603;SDS011;60645;56.968;24.196;2024-03-02T14:49:13;10.52;;;5.85;;
72603;SDS011;60645;56.968;24.196;2024-03-02T14:51:40;9.27;;;5.45;;
72603;SDS011;60645;56.968;24.196;2024-03-02T14:54:07;9.23;;;5.28;;
72603;SDS011;60645;56.968;24.196;2024-03-02T14:56:34;10.67;;;5.90;;
72603;SDS011;60645;56.968;24.196;2024-03-02T14:59:01;9.45;;;5.95;;
72603;SDS011;60645;56.968;24.196;2024-03-02T15:01:28;10.77;;;6.07;;
72603;SDS011;60645;56.968;24.196;2024-03-02T15:03:55;9.48;;;4.60;;
72603;SDS011;60645;56.968;24.196;2024-03-02T15:06:22;9.18;;;5.55;;
72603;SDS011;60645;56.968;24.196;2024-03-02T15:08:49;9.95;;;5.50;;
72603;SDS011;60645;56.968;24.196;2024-03-02T15:11:16;10.45;;;5.93;;
72603;SDS011;60645;56.968;24.196;2024-03-02T15:13:43;10.27;;;6.18;;
72603;SDS011;60645;56.968;24.196;2024-03-02T15:16:10;8.82;;;5.38;;
72603;SDS011;60645;56.968;24.196;2024-03-02T15:18:38;10.73;;;5.63;;
72603;SDS011;60645;56.968;24.196;2024-03-02T15:21:05;9.98;;;5.22;;
72603;SDS011;60645;56.968;24.196;2024-03-02T15:23:33;11.45;;;5.53;;
72603;SDS011;60645;56.968;24.196;2024-03-02T15:26:00;9.27;;;5.40;;
72603;SDS011;60645;56.968;24.196;2024-03-02T15:28:27;10.95;;;6.10;;
72603;SDS011;60645;56.968;24.196;2024-03-02T15:30:54;10.85;;;5.90;;
72603;SDS011;60645;56.968;24.196;2024-03-02T15:33:22;9.15;;;5.93;;
72603;SDS011;60645;56.968;24.196;2024-03-02T15:35:55;10.20;;;5.55;;
72603;SDS011;60645;56.968;24.196;2024-03-02T15:38:25;11.17;;;5.90;;
72603;SDS011;60645;56.968;24.196;2024-03-02T15:41:00;9.18;;;5.57;;
72603;SDS011;60645;56.968;24.196;2024-03-02T15:43:28;11.00;;;6.20;;
72603;SDS011;60645;56.968;24.196;2024-03-02T15:45:57;13.75;;;6.10;;
72603;SDS011;60645;56.968;24.196;2024-03-02T15:48:24;10.90;;;5.78;;